Time,TemperatureF,DewpointF,PressureIn,WindDirection,WindDirectionDegrees,WindSpeedMPH,WindSpeedGustMPH,Humidity,HourlyPrecipIn,Conditions,Clouds,dailyrainin,SoftwareType,DateUTC
2013-07-29 00:02:00,68.4,67.8,30.09,West,270,0.0,0.0,98,0.00,,,0.00,meteohub,2013-07-29 04:02:00,
2013-07-29 00:07:00,68.4,67.8,30.09,NE,45,0.0,0.0,98,0.00,,,0.00,meteohub,2013-07-29 04:07:00,
2013-07-29 00:12:00,68.4,67.8,30.09,NE,45,0.0,0.0,98,0.00,,,0.00,meteohub,2013-07-29 04:12:00,
2013-07-29 00:17:00,68.4,67.8,30.09,NE,45,0.0,0.0,98,0.00,,,0.00,meteohub,2013-07-29 04:17:00,
2013-07-29 00:22:00,68.4,67.8,30.09,NNW,338,0.0,0.0,98,0.00,,,0.00,meteohub,2013-07-29 04:22:00,
2013-07-29 00:27:00,68.4,67.8,30.06,NNW,338,0.0,0.0,98,0.00,,,0.00,meteohub,2013-07-29 04:27:00,
2013-07-29 00:32:00,68.4,67.8,30.06,North,0,0.0,0.0,98,0.00,,,0.00,meteohub,2013-07-29 04:32:00,
2013-07-29 00:37:00,68.4,67.8,30.06,North,0,0.0,0.0,98,0.00,,,0.00,meteohub,2013-07-29 04:37:00,
2013-07-29 00:42:00,68.4,67.8,30.06,North,0,0.0,0.0,98,0.00,,,0.00,meteohub,2013-07-29 04:42:00,
2013-07-29 00:47:00,68.4,67.8,30.06,SW,225,1.0,0.0,98,0.00,,,0.00,meteohub,2013-07-29 04:47:00,
2013-07-29 00:52:00,68.4,67.8,30.06,NNW,338,0.0,0.0,98,0.00,,,0.00,meteohub,2013-07-29 04:52:00,
2013-07-29 00:57:00,68.4,67.8,30.06,SE,135,0.0,3.0,98,0.00,,,0.00,meteohub,2013-07-29 04:57:00,
2013-07-29 01:02:00,68.4,67.8,30.06,SE,135,0.0,3.0,98,0.00,,,0.00,meteohub,2013-07-29 05:02:00,
2013-07-29 01:07:00,68.2,67.6,30.06,SW,225,0.0,3.0,98,0.00,,,0.00,meteohub,2013-07-29 05:07:00,
2013-07-29 01:12:00,68.2,67.6,30.06,ESE,112,0.0,1.0,98,0.00,,,0.00,meteohub,2013-07-29 05:12:00,
2013-07-29 01:17:00,68.2,67.6,30.06,WSW,248,0.0,2.0,98,0.00,,,0.00,meteohub,2013-07-29 05:17:00,
2013-07-29 01:22:00,68.2,67.6,30.06,South,180,0.0,2.0,98,0.00,,,0.00,meteohub,2013-07-29 05:22:00,
2013-07-29 01:27:00,68.0,67.5,30.06,South,180,0.0,2.0,98,0.00,,,0.00,meteohub,2013-07-29 05:27:00,
2013-07-29 01:32:00,68.0,67.5,30.06,South,180,0.0,0.0,98,0.00,,,0.00,meteohub,2013-07-29 05:32:00,
2013-07-29 01:37:00,67.8,67.3,30.06,NE,45,0.0,0.0,98,0.00,,,0.00,meteohub,2013-07-29 05:37:00,
2013-07-29 01:42:00,67.8,67.3,30.06,NE,45,0.0,0.0,98,0.00,,,0.00,meteohub,2013-07-29 05:42:00,
2013-07-29 01:52:00,67.6,67.1,30.06,SSE,158,0.0,0.0,98,0.00,,,0.00,meteohub,2013-07-29 05:52:00,
2013-07-29 01:57:00,67.5,66.9,30.06,SSE,158,0.0,0.0,98,0.00,,,0.00,meteohub,2013-07-29 05:57:00,
2013-07-29 02:02:00,67.5,66.9,30.06,SSE,158,0.0,0.0,98,0.00,,,0.00,meteohub,2013-07-29 06:02:00,
2013-07-29 02:07:00,67.3,66.7,30.06,East,90,0.0,0.0,98,0.00,,,0.00,meteohub,2013-07-29 06:07:00,
2013-07-29 02:17:00,67.3,66.7,30.09,East,90,0.0,0.0,98,0.00,,,0.00,meteohub,2013-07-29 06:17:00,
2013-07-29 02:22:00,67.1,66.6,30.09,East,90,0.0,0.0,98,0.00,,,0.00,meteohub,2013-07-29 06:22:00,
2013-07-29 02:27:00,66.9,66.4,30.06,East,90,0.0,0.0,98,0.00,,,0.00,meteohub,2013-07-29 06:27:00,
2013-07-29 02:37:00,66.7,66.2,30.06,East,90,0.0,0.0,98,0.00,,,0.00,meteohub,2013-07-29 06:37:00,
2013-07-29 02:47:00,66.6,66.0,30.03,East,90,0.0,0.0,98,0.00,,,0.00,meteohub,2013-07-29 06:47:00,
2013-07-29 02:57:00,66.6,66.0,30.06,East,90,0.0,0.0,98,0.00,,,0.00,meteohub,2013-07-29 06:57:00,
2013-07-29 03:02:00,66.4,65.8,30.06,South,180,0.0,0.0,98,0.00,,,0.00,meteohub,2013-07-29 07:02:00,
2013-07-29 03:07:00,66.4,65.8,30.06,South,180,0.0,0.0,98,0.00,,,0.00,meteohub,2013-07-29 07:07:00,
2013-07-29 03:12:00,66.4,65.8,30.06,South,180,0.0,0.0,98,0.00,,,0.00,meteohub,2013-07-29 07:12:00,
2013-07-29 03:22:00,66.4,65.8,30.06,South,180,0.0,0.0,98,0.00,,,0.00,meteohub,2013-07-29 07:22:00,
2013-07-29 03:27:00,66.4,65.8,30.06,South,180,0.0,0.0,98,0.00,,,0.00,meteohub,2013-07-29 07:27:00,
2013-07-29 03:32:00,66.4,65.8,30.06,South,180,0.0,0.0,98,0.00,,,0.00,meteohub,2013-07-29 07:32:00,
2013-07-29 03:37:00,66.6,66.0,30.06,SSW,202,0.0,0.0,98,0.00,,,0.00,meteohub,2013-07-29 07:37:00,
2013-07-29 03:42:00,66.6,66.0,30.06,SSE,158,0.0,0.0,98,0.00,,,0.00,meteohub,2013-07-29 07:42:00,
2013-07-29 03:47:00,66.6,66.0,30.06,SSE,158,0.0,0.0,98,0.00,,,0.00,meteohub,2013-07-29 07:47:00,
2013-07-29 03:57:00,66.7,66.2,30.06,SSW,202,0.0,0.0,98,0.00,,,0.00,meteohub,2013-07-29 07:57:00,
2013-07-29 04:02:00,66.7,66.2,30.06,South,180,0.0,0.0,98,0.00,,,0.00,meteohub,2013-07-29 08:02:00,
2013-07-29 04:07:00,66.9,66.4,30.06,SW,225,0.0,1.0,98,0.00,,,0.00,meteohub,2013-07-29 08:07:00,
2013-07-29 04:17:00,66.9,66.4,30.06,NNE,22,0.0,1.0,98,0.00,,,0.00,meteohub,2013-07-29 08:17:00,
2013-07-29 04:22:00,66.7,66.2,30.06,WSW,248,0.0,0.0,98,0.00,,,0.00,meteohub,2013-07-29 08:22:00,
2013-07-29 04:27:00,66.7,66.2,30.06,NNE,22,0.0,0.0,98,0.00,,,0.00,meteohub,2013-07-29 08:27:00,
2013-07-29 04:32:00,66.7,66.2,30.06,NW,315,0.0,0.0,98,0.00,,,0.00,meteohub,2013-07-29 08:32:00,
2013-07-29 04:37:00,66.7,66.2,30.06,NW,315,0.0,0.0,98,0.00,,,0.00,meteohub,2013-07-29 08:37:00,
2013-07-29 04:42:00,66.7,66.2,30.06,NNW,338,0.0,0.0,98,0.00,,,0.00,meteohub,2013-07-29 08:42:00,
2013-07-29 04:47:00,66.7,66.2,30.06,North,0,0.0,0.0,98,0.00,,,0.00,meteohub,2013-07-29 08:47:00,
2013-07-29 04:52:00,66.7,66.2,30.06,SE,135,0.0,0.0,98,0.00,,,0.00,meteohub,2013-07-29 08:52:00,
2013-07-29 05:02:00,66.7,66.2,30.03,WNW,292,0.0,0.0,98,0.00,,,0.00,meteohub,2013-07-29 09:02:00,
2013-07-29 05:07:00,66.7,66.2,30.03,WNW,292,0.0,2.0,98,0.00,,,0.00,meteohub,2013-07-29 09:07:00,
2013-07-29 05:12:00,66.7,66.2,30.06,NW,315,0.0,2.0,98,0.00,,,0.00,meteohub,2013-07-29 09:12:00,
2013-07-29 05:17:00,66.7,66.2,30.06,NW,315,0.0,2.0,98,0.00,,,0.00,meteohub,2013-07-29 09:17:00,
2013-07-29 05:27:00,66.7,66.2,30.06,South,180,0.0,0.0,98,0.00,,,0.00,meteohub,2013-07-29 09:27:00,
2013-07-29 05:37:00,66.9,66.4,30.06,SSW,202,0.0,0.0,98,0.00,,,0.00,meteohub,2013-07-29 09:37:00,
2013-07-29 05:42:00,66.9,66.4,30.06,SSW,202,0.0,0.0,98,0.00,,,0.00,meteohub,2013-07-29 09:42:00,
2013-07-29 05:52:00,66.9,66.4,30.06,West,270,0.0,0.0,98,0.00,,,0.00,meteohub,2013-07-29 09:52:00,
2013-07-29 05:57:00,66.9,66.4,30.06,SSW,202,0.0,0.0,98,0.00,,,0.00,meteohub,2013-07-29 09:57:00,
2013-07-29 06:07:00,67.1,66.6,30.06,SW,225,0.0,0.0,98,0.00,,,0.00,meteohub,2013-07-29 10:07:00,
2013-07-29 06:12:00,67.1,66.6,30.06,SW,225,0.0,0.0,98,0.00,,,0.00,meteohub,2013-07-29 10:12:00,
2013-07-29 06:22:00,67.1,66.6,30.06,SW,225,0.0,0.0,98,0.00,,,0.00,meteohub,2013-07-29 10:22:00,
2013-07-29 06:27:00,67.3,66.7,30.06,SW,225,0.0,0.0,98,0.00,,,0.00,meteohub,2013-07-29 10:27:00,
2013-07-29 06:37:00,67.3,66.7,30.06,SW,225,0.0,0.0,98,0.00,,,0.00,meteohub,2013-07-29 10:37:00,
2013-07-29 06:47:00,67.6,67.1,30.06,South,180,0.0,0.0,98,0.00,,,0.00,meteohub,2013-07-29 10:47:00,
2013-07-29 06:52:00,67.6,67.1,30.06,South,180,0.0,0.0,98,0.00,,,0.00,meteohub,2013-07-29 10:52:00,
2013-07-29 06:57:00,67.8,67.3,30.06,SSE,158,0.0,0.0,98,0.00,,,0.00,meteohub,2013-07-29 10:57:00,
2013-07-29 07:07:00,68.4,67.8,30.06,SSE,158,1.0,2.0,98,0.00,,,0.00,meteohub,2013-07-29 11:07:00,
2013-07-29 07:12:00,68.7,68.2,30.06,SSE,158,0.0,2.0,98,0.00,,,0.00,meteohub,2013-07-29 11:12:00,
2013-07-29 07:22:00,69.1,68.5,30.06,NW,315,1.0,3.0,98,0.00,,,0.00,meteohub,2013-07-29 11:22:00,
2013-07-29 07:27:00,69.3,68.7,30.06,SSE,158,0.0,3.0,98,0.00,,,0.00,meteohub,2013-07-29 11:27:00,
2013-07-29 07:32:00,69.3,68.7,30.06,South,180,0.0,3.0,98,0.00,,,0.00,meteohub,2013-07-29 11:32:00,
2013-07-29 07:37:00,69.4,68.9,30.06,SW,225,0.0,6.0,98,0.00,,,0.00,meteohub,2013-07-29 11:37:00,
2013-07-29 07:47:00,69.4,68.9,30.06,WSW,248,2.0,6.0,98,0.00,,,0.00,meteohub,2013-07-29 11:47:00,
2013-07-29 07:52:00,69.6,69.1,30.06,SSE,158,0.0,4.0,98,0.00,,,0.00,meteohub,2013-07-29 11:52:00,
2013-07-29 07:57:00,69.6,69.1,30.06,SSW,202,3.0,4.0,98,0.00,,,0.00,meteohub,2013-07-29 11:57:00,
2013-07-29 08:02:00,69.6,69.1,30.06,South,180,1.0,4.0,98,0.00,,,0.00,meteohub,2013-07-29 12:02:00,
2013-07-29 08:12:00,69.8,69.3,30.09,South,180,1.0,6.0,98,0.00,,,0.00,meteohub,2013-07-29 12:12:00,
2013-07-29 08:17:00,70.0,69.4,30.09,WSW,248,0.0,6.0,98,0.00,,,0.00,meteohub,2013-07-29 12:17:00,
2013-07-29 08:22:00,70.0,69.4,30.09,South,180,1.0,5.0,98,0.00,,,0.00,meteohub,2013-07-29 12:22:00,
2013-07-29 08:32:00,70.3,69.8,30.09,SSE,158,2.0,4.0,98,0.00,,,0.00,meteohub,2013-07-29 12:32:00,
2013-07-29 08:42:00,70.7,69.4,30.06,SSE,158,1.0,4.0,96,0.00,,,0.00,meteohub,2013-07-29 12:42:00,
2013-07-29 08:52:00,71.4,69.6,30.06,WSW,248,2.0,5.0,94,0.00,,,0.00,meteohub,2013-07-29 12:52:00,
2013-07-29 09:02:00,71.8,69.6,30.09,WSW,248,2.0,5.0,93,0.00,,,0.00,meteohub,2013-07-29 13:02:00,
2013-07-29 09:07:00,71.8,70.0,30.09,South,180,3.0,5.0,94,0.00,,,0.00,meteohub,2013-07-29 13:07:00,
2013-07-29 09:12:00,72.0,69.8,30.06,SSW,202,0.0,6.0,93,0.00,,,0.00,meteohub,2013-07-29 13:12:00,
2013-07-29 09:17:00,71.8,69.6,30.06,SSE,158,1.0,6.0,93,0.00,,,0.00,meteohub,2013-07-29 13:17:00,
2013-07-29 09:22:00,71.8,69.3,30.06,SW,225,1.0,6.0,92,0.00,,,0.00,meteohub,2013-07-29 13:22:00,
2013-07-29 09:32:00,72.0,69.4,30.09,WSW,248,0.0,4.0,92,0.00,,,0.00,meteohub,2013-07-29 13:32:00,
2013-07-29 09:37:00,72.1,69.6,30.09,South,180,0.0,4.0,92,0.00,,,0.00,meteohub,2013-07-29 13:37:00,
2013-07-29 09:42:00,72.7,70.2,30.06,NNE,22,0.0,3.0,92,0.00,,,0.00,meteohub,2013-07-29 13:42:00,
2013-07-29 09:52:00,73.0,70.0,30.06,SW,225,0.0,3.0,90,0.00,,,0.00,meteohub,2013-07-29 13:52:00,
2013-07-29 09:57:00,73.0,70.0,30.09,SE,135,4.0,4.0,90,0.00,,,0.00,meteohub,2013-07-29 13:57:00,
2013-07-29 10:07:00,73.2,69.8,30.09,WSW,248,1.0,4.0,89,0.00,,,0.00,meteohub,2013-07-29 14:07:00,
2013-07-29 10:12:00,73.2,69.4,30.09,SE,135,0.0,4.0,88,0.00,,,0.00,meteohub,2013-07-29 14:12:00,
2013-07-29 10:17:00,73.4,69.6,30.09,WSW,248,0.0,3.0,88,0.00,,,0.00,meteohub,2013-07-29 14:17:00,
2013-07-29 10:27:00,73.8,69.6,30.09,SW,225,0.0,3.0,87,0.00,,,0.00,meteohub,2013-07-29 14:27:00,
2013-07-29 10:32:00,74.1,70.0,30.09,SSW,202,3.0,4.0,87,0.00,,,0.00,meteohub,2013-07-29 14:32:00,
2013-07-29 10:42:00,74.3,69.4,30.09,SSW,202,1.0,4.0,85,0.00,,,0.00,meteohub,2013-07-29 14:42:00,
2013-07-29 10:52:00,74.5,67.8,30.09,SW,225,0.0,4.0,80,0.00,,,0.00,meteohub,2013-07-29 14:52:00,
2013-07-29 10:57:00,74.8,68.5,30.09,WSW,248,0.0,4.0,81,0.00,,,0.00,meteohub,2013-07-29 14:57:00,
2013-07-29 11:07:00,75.7,68.0,30.09,NE,45,0.0,4.0,77,0.00,,,0.00,meteohub,2013-07-29 15:07:00,
2013-07-29 11:17:00,76.3,68.5,30.09,WNW,292,3.0,4.0,77,0.00,,,0.00,meteohub,2013-07-29 15:17:00,
2013-07-29 11:27:00,77.0,67.3,30.06,SSE,158,6.0,6.0,72,0.00,,,0.00,meteohub,2013-07-29 15:27:00,
2013-07-29 11:37:00,77.0,67.3,30.06,SSE,158,3.0,6.0,72,0.00,,,0.00,meteohub,2013-07-29 15:37:00,
2013-07-29 11:47:00,78.1,65.8,30.06,WNW,292,6.0,6.0,66,0.00,,,0.00,meteohub,2013-07-29 15:47:00,
2013-07-29 11:57:00,78.3,67.3,30.06,NNW,338,2.0,6.0,69,0.00,,,0.00,meteohub,2013-07-29 15:57:00,
2013-07-29 12:02:00,78.8,66.0,30.06,WSW,248,2.0,6.0,65,0.00,,,0.00,meteohub,2013-07-29 16:02:00,
2013-07-29 12:07:00,79.3,65.7,30.06,South,180,1.0,6.0,63,0.00,,,0.00,meteohub,2013-07-29 16:07:00,
2013-07-29 12:17:00,79.7,64.6,30.03,NW,315,2.0,6.0,60,0.00,,,0.00,meteohub,2013-07-29 16:17:00,
2013-07-29 12:27:00,80.4,65.3,30.06,North,0,1.0,5.0,60,0.00,,,0.00,meteohub,2013-07-29 16:27:00,
2013-07-29 12:32:00,80.1,65.5,30.06,West,270,2.0,6.0,61,0.00,,,0.00,meteohub,2013-07-29 16:32:00,
2013-07-29 12:37:00,80.2,63.7,30.06,South,180,3.0,8.0,57,0.00,,,0.00,meteohub,2013-07-29 16:37:00,
2013-07-29 12:42:00,80.1,63.9,30.06,SE,135,1.0,8.0,58,0.00,,,0.00,meteohub,2013-07-29 16:42:00,
2013-07-29 12:52:00,80.1,64.9,30.06,WSW,248,2.0,5.0,60,0.00,,,0.00,meteohub,2013-07-29 16:52:00,
2013-07-29 12:57:00,79.9,65.3,30.06,West,270,0.0,8.0,61,0.00,,,0.00,meteohub,2013-07-29 16:57:00,
2013-07-29 13:07:00,79.3,66.0,30.06,NW,315,0.0,8.0,64,0.00,,,0.00,meteohub,2013-07-29 17:07:00,
2013-07-29 13:12:00,79.2,66.4,30.09,NW,315,3.0,5.0,65,0.00,,,0.00,meteohub,2013-07-29 17:12:00,
2013-07-29 13:22:00,80.1,65.8,30.09,WSW,248,3.0,4.0,62,0.00,,,0.00,meteohub,2013-07-29 17:22:00,
2013-07-29 13:27:00,80.6,66.4,30.06,NNW,338,4.0,7.0,62,0.00,,,0.00,meteohub,2013-07-29 17:27:00,
2013-07-29 13:32:00,81.0,64.8,30.06,South,180,2.0,7.0,58,0.00,,,0.00,meteohub,2013-07-29 17:32:00,
2013-07-29 13:37:00,80.4,66.2,30.06,WNW,292,0.0,7.0,62,0.00,,,0.00,meteohub,2013-07-29 17:37:00,
2013-07-29 13:42:00,80.1,65.8,30.06,SSE,158,2.0,4.0,62,0.00,,,0.00,meteohub,2013-07-29 17:42:00,
2013-07-29 13:52:00,80.4,67.1,30.06,West,270,3.0,6.0,64,0.00,,,0.00,meteohub,2013-07-29 17:52:00,
2013-07-29 14:02:00,80.8,67.5,30.06,SSW,202,4.0,6.0,64,0.00,,,0.00,meteohub,2013-07-29 18:02:00,
2013-07-29 14:12:00,80.8,67.5,30.06,West,270,3.0,6.0,64,0.00,,,0.00,meteohub,2013-07-29 18:12:00,
2013-07-29 14:22:00,81.1,66.4,30.06,NNW,338,3.0,6.0,61,0.00,,,0.00,meteohub,2013-07-29 18:22:00,
2013-07-29 14:27:00,80.8,66.9,30.06,North,0,2.0,6.0,63,0.00,,,0.00,meteohub,2013-07-29 18:27:00,
2013-07-29 14:32:00,80.8,66.9,30.06,WNW,292,4.0,6.0,63,0.00,,,0.00,meteohub,2013-07-29 18:32:00,
2013-07-29 14:37:00,81.1,67.3,30.06,South,180,5.0,6.0,63,0.00,,,0.00,meteohub,2013-07-29 18:37:00,
2013-07-29 14:47:00,81.1,66.9,30.03,WNW,292,2.0,5.0,62,0.00,,,0.00,meteohub,2013-07-29 18:47:00,
2013-07-29 14:57:00,81.3,67.1,30.03,WNW,292,2.0,7.0,62,0.00,,,0.00,meteohub,2013-07-29 18:57:00,
2013-07-29 15:02:00,81.5,66.7,30.03,NW,315,2.0,9.0,61,0.00,,,0.00,meteohub,2013-07-29 19:02:00,
2013-07-29 15:12:00,81.5,67.3,30.00,South,180,4.0,5.0,62,0.00,,,0.00,meteohub,2013-07-29 19:12:00,
2013-07-29 15:22:00,81.3,66.6,30.00,NW,315,2.0,6.0,61,0.00,,,0.00,meteohub,2013-07-29 19:22:00,
2013-07-29 15:27:00,81.0,66.2,30.00,North,0,1.0,6.0,61,0.00,,,0.00,meteohub,2013-07-29 19:27:00,
2013-07-29 15:32:00,80.6,66.9,30.00,ENE,68,1.0,6.0,63,0.00,,,0.00,meteohub,2013-07-29 19:32:00,
2013-07-29 15:42:00,80.1,66.7,30.00,WSW,248,0.0,4.0,64,0.00,,,0.00,meteohub,2013-07-29 19:42:00,
2013-07-29 15:52:00,78.8,67.3,30.00,SE,135,2.0,6.0,68,0.00,,,0.00,meteohub,2013-07-29 19:52:00,
2013-07-29 15:57:00,78.6,67.6,30.00,WNW,292,3.0,6.0,69,0.00,,,0.00,meteohub,2013-07-29 19:57:00,
2013-07-29 16:02:00,77.9,68.2,30.00,WNW,292,0.0,6.0,72,0.00,,,0.00,meteohub,2013-07-29 20:02:00,
2013-07-29 16:12:00,75.7,67.6,30.03,SSW,202,0.0,3.0,76,0.00,,,0.00,meteohub,2013-07-29 20:12:00,
2013-07-29 16:17:00,75.4,67.6,30.03,NE,45,0.0,3.0,77,0.00,,,0.00,meteohub,2013-07-29 20:17:00,
2013-07-29 16:22:00,75.7,66.4,30.03,SSW,202,0.0,3.0,73,0.00,,,0.00,meteohub,2013-07-29 20:22:00,
2013-07-29 16:32:00,76.8,64.6,30.00,East,90,2.0,6.0,66,0.00,,,0.00,meteohub,2013-07-29 20:32:00,
2013-07-29 16:42:00,77.0,63.0,30.00,SW,225,4.0,8.0,62,0.00,,,0.00,meteohub,2013-07-29 20:42:00,
2013-07-29 16:47:00,77.0,63.9,30.00,South,180,3.0,8.0,64,0.00,,,0.00,meteohub,2013-07-29 20:47:00,
2013-07-29 16:52:00,76.8,63.3,30.00,SSW,202,2.0,8.0,63,0.00,,,0.00,meteohub,2013-07-29 20:52:00,
2013-07-29 16:57:00,77.2,64.0,30.00,SW,225,2.0,6.0,64,0.00,,,0.00,meteohub,2013-07-29 20:57:00,
2013-07-29 17:07:00,77.5,64.8,30.00,SSW,202,0.0,4.0,65,0.00,,,0.00,meteohub,2013-07-29 21:07:00,
2013-07-29 17:12:00,78.1,65.8,30.00,SSE,158,0.0,4.0,66,0.00,,,0.00,meteohub,2013-07-29 21:12:00,
2013-07-29 17:17:00,78.6,65.8,30.00,WSW,248,0.0,4.0,65,0.00,,,0.00,meteohub,2013-07-29 21:17:00,
2013-07-29 17:27:00,78.6,65.8,30.00,South,180,0.0,4.0,65,0.00,,,0.00,meteohub,2013-07-29 21:27:00,
2013-07-29 17:37:00,78.4,65.7,30.00,SW,225,0.0,4.0,65,0.00,,,0.00,meteohub,2013-07-29 21:37:00,
2013-07-29 17:47:00,78.3,66.4,30.00,South,180,0.0,3.0,67,0.00,,,0.00,meteohub,2013-07-29 21:47:00,
2013-07-29 17:52:00,78.4,66.2,30.00,South,180,1.0,2.0,66,0.00,,,0.00,meteohub,2013-07-29 21:52:00,
2013-07-29 18:03:00,78.3,66.0,30.00,SSE,158,0.0,3.0,66,0.00,,,0.00,meteohub,2013-07-29 22:03:00,
2013-07-29 18:12:00,77.7,65.5,30.00,East,90,0.0,2.0,66,0.00,,,0.00,meteohub,2013-07-29 22:12:00,
2013-07-29 18:22:00,78.1,66.7,30.00,West,270,1.0,2.0,68,0.00,,,0.00,meteohub,2013-07-29 22:22:00,
2013-07-29 18:27:00,78.3,66.7,30.00,ENE,68,0.0,1.0,68,0.00,,,0.00,meteohub,2013-07-29 22:27:00,
2013-07-29 18:32:00,78.6,67.6,30.00,NNW,338,3.0,3.0,69,0.00,,,0.00,meteohub,2013-07-29 22:32:00,
2013-07-29 18:37:00,78.6,67.6,30.00,East,90,1.0,3.0,69,0.00,,,0.00,meteohub,2013-07-29 22:37:00,
2013-07-29 18:42:00,78.6,67.6,30.00,North,0,2.0,3.0,69,0.00,,,0.00,meteohub,2013-07-29 22:42:00,
2013-07-29 18:47:00,78.4,67.5,30.00,SE,135,2.0,6.0,69,0.00,,,0.00,meteohub,2013-07-29 22:47:00,
2013-07-29 18:57:00,77.9,65.7,30.00,WSW,248,2.0,6.0,66,0.00,,,0.00,meteohub,2013-07-29 22:57:00,
2013-07-29 19:03:00,77.4,65.1,30.00,South,180,3.0,6.0,66,0.00,,,0.00,meteohub,2013-07-29 23:03:00,
2013-07-29 19:12:00,76.8,64.9,30.00,SSE,158,0.0,4.0,67,0.00,,,0.00,meteohub,2013-07-29 23:12:00,
2013-07-29 19:17:00,76.6,65.3,30.00,SSE,158,0.0,3.0,68,0.00,,,0.00,meteohub,2013-07-29 23:17:00,
2013-07-29 19:22:00,76.6,65.7,30.00,ENE,68,0.0,2.0,69,0.00,,,0.00,meteohub,2013-07-29 23:22:00,
2013-07-29 19:32:00,76.6,66.2,30.00,NW,315,0.0,2.0,70,0.00,,,0.00,meteohub,2013-07-29 23:32:00,
2013-07-29 19:42:00,76.5,66.0,30.03,South,180,0.0,2.0,70,0.00,,,0.00,meteohub,2013-07-29 23:42:00,
2013-07-29 19:47:00,76.3,66.2,30.03,NE,45,0.0,2.0,71,0.00,,,0.00,meteohub,2013-07-29 23:47:00,
2013-07-29 19:57:00,76.1,66.7,30.06,South,180,0.0,1.0,73,0.00,,,0.00,meteohub,2013-07-29 23:57:00,
2013-07-29 20:02:00,75.9,67.1,30.06,South,180,0.0,0.0,74,0.00,,,0.00,meteohub,2013-07-30 00:02:00,
2013-07-29 20:12:00,75.4,67.3,30.06,SSE,158,0.0,0.0,76,0.00,,,0.00,meteohub,2013-07-30 00:12:00,
2013-07-29 20:22:00,74.8,67.5,30.06,SSE,158,0.0,0.0,78,0.00,,,0.00,meteohub,2013-07-30 00:22:00,
2013-07-29 20:32:00,74.5,67.5,30.06,SSE,158,0.0,0.0,79,0.00,,,0.00,meteohub,2013-07-30 00:32:00,
2013-07-29 20:37:00,74.3,67.6,30.06,SSW,202,0.0,0.0,80,0.00,,,0.00,meteohub,2013-07-30 00:37:00,
2013-07-29 20:47:00,73.9,67.8,30.06,SSW,202,0.0,0.0,81,0.00,,,0.00,meteohub,2013-07-30 00:47:00,
2013-07-29 20:57:00,74.3,68.4,30.03,SSW,202,0.0,0.0,82,0.00,,,0.00,meteohub,2013-07-30 00:57:00,
2013-07-29 21:07:00,73.9,68.2,30.03,West,270,0.0,2.0,82,0.00,,,0.00,meteohub,2013-07-30 01:07:00,
2013-07-29 21:12:00,73.9,68.2,30.06,South,180,3.0,3.0,82,0.00,,,0.00,meteohub,2013-07-30 01:12:00,
2013-07-29 21:17:00,74.3,66.9,30.06,South,180,2.0,3.0,78,0.00,,,0.00,meteohub,2013-07-30 01:17:00,
2013-07-29 21:22:00,74.5,67.1,30.06,SSW,202,0.0,4.0,78,0.00,,,0.00,meteohub,2013-07-30 01:22:00,
2013-07-29 21:32:00,74.5,67.5,30.06,SSW,202,0.0,4.0,79,0.00,,,0.00,meteohub,2013-07-30 01:32:00,
2013-07-29 21:37:00,74.5,67.5,30.06,SSW,202,0.0,3.0,79,0.00,,,0.00,meteohub,2013-07-30 01:37:00,
2013-07-29 21:42:00,74.3,67.3,30.06,South,180,0.0,3.0,79,0.00,,,0.00,meteohub,2013-07-30 01:42:00,
2013-07-29 21:47:00,73.9,67.5,30.06,South,180,0.0,3.0,80,0.00,,,0.00,meteohub,2013-07-30 01:47:00,
2013-07-29 21:52:00,73.6,67.5,30.06,South,180,0.0,0.0,81,0.00,,,0.00,meteohub,2013-07-30 01:52:00,
2013-07-29 22:02:00,72.7,67.3,30.06,South,180,0.0,0.0,83,0.00,,,0.00,meteohub,2013-07-30 02:02:00,
2013-07-29 22:07:00,72.5,66.7,30.06,South,180,0.0,0.0,82,0.00,,,0.00,meteohub,2013-07-30 02:07:00,
2013-07-29 22:12:00,72.1,66.0,30.09,South,180,0.0,0.0,81,0.00,,,0.00,meteohub,2013-07-30 02:12:00,
2013-07-29 22:17:00,72.0,65.1,30.09,South,180,0.0,0.0,79,0.00,,,0.00,meteohub,2013-07-30 02:17:00,
2013-07-29 22:27:00,71.8,63.9,30.09,South,180,0.0,0.0,76,0.00,,,0.00,meteohub,2013-07-30 02:27:00,
2013-07-29 22:37:00,71.6,63.0,30.09,South,180,0.0,0.0,74,0.00,,,0.00,meteohub,2013-07-30 02:37:00,
2013-07-29 22:42:00,71.4,63.1,30.09,South,180,0.0,0.0,75,0.00,,,0.00,meteohub,2013-07-30 02:42:00,
2013-07-29 22:52:00,71.1,62.4,30.09,South,180,0.0,0.0,74,0.00,,,0.00,meteohub,2013-07-30 02:52:00,
2013-07-29 23:02:00,70.9,61.9,30.09,South,180,0.0,0.0,73,0.00,,,0.00,meteohub,2013-07-30 03:02:00,
2013-07-29 23:08:00,70.7,61.7,30.09,South,180,0.0,0.0,73,0.00,,,0.00,meteohub,2013-07-30 03:08:00,
2013-07-29 23:17:00,70.3,60.8,30.09,South,180,0.0,0.0,72,0.00,,,0.00,meteohub,2013-07-30 03:17:00,
2013-07-29 23:22:00,70.2,60.8,30.09,South,180,0.0,0.0,72,0.00,,,0.00,meteohub,2013-07-30 03:22:00,
2013-07-29 23:27:00,70.0,60.6,30.09,South,180,0.0,0.0,72,0.00,,,0.00,meteohub,2013-07-30 03:27:00,
2013-07-29 23:37:00,69.6,60.6,30.09,South,180,0.0,0.0,73,0.00,,,0.00,meteohub,2013-07-30 03:37:00,
2013-07-29 23:47:00,69.1,60.4,30.09,South,180,0.0,0.0,74,0.00,,,0.00,meteohub,2013-07-30 03:47:00,
2013-07-29 23:52:00,69.1,60.4,30.09,South,180,0.0,0.0,74,0.00,,,0.00,meteohub,2013-07-30 03:52:00,
2013-07-29 23:57:00,69.1,60.8,30.09,South,180,0.0,0.0,75,0.00,,,0.00,meteohub,2013-07-30 03:57:00,